sensor_id;sensor_type;location;lat;lon;timestamp;temperature;humidity
3202;DHT22;34843;48.744;8.958;2022-08-26T00:01:24;18.20;99.90
3202;DHT22;34843;48.744;8.958;2022-08-26T00:03:50;18.20;99.90
3202;DHT22;34843;48.744;8.958;2022-08-26T00:06:16;18.20;99.90
3202;DHT22;34843;48.744;8.958;2022-08-26T00:08:42;18.10;99.90
3202;DHT22;34843;48.744;8.958;2022-08-26T00:11:08;18.10;99.90
3202;DHT22;34843;48.744;8.958;2022-08-26T00:13:34;18.20;99.90
3202;DHT22;34843;48.744;8.958;2022-08-26T00:16:02;18.20;99.90
3202;DHT22;34843;48.744;8.958;2022-08-26T00:18:28;18.30;99.90
3202;DHT22;34843;48.744;8.958;2022-08-26T00:20:54;18.20;99.90
3202;DHT22;34843;48.744;8.958;2022-08-26T00:23:20;18.20;99.90
3202;DHT22;34843;48.744;8.958;2022-08-26T00:25:46;18.20;99.90
3202;DHT22;34843;48.744;8.958;2022-08-26T00:28:12;18.30;99.90
3202;DHT22;34843;48.744;8.958;2022-08-26T00:30:38;18.20;99.90
3202;DHT22;34843;48.744;8.958;2022-08-26T00:33:04;18.20;99.90
3202;DHT22;34843;48.744;8.958;2022-08-26T00:35:31;18.10;99.90
3202;DHT22;34843;48.744;8.958;2022-08-26T00:37:58;18.00;99.90
3202;DHT22;34843;48.744;8.958;2022-08-26T00:40:31;18.00;99.90
3202;DHT22;34843;48.744;8.958;2022-08-26T00:42:57;18.00;99.90
3202;DHT22;34843;48.744;8.958;2022-08-26T00:45:23;18.00;99.90
3202;DHT22;34843;48.744;8.958;2022-08-26T00:47:58;17.90;99.90
3202;DHT22;34843;48.744;8.958;2022-08-26T00:50:30;18.00;99.90
3202;DHT22;34843;48.744;8.958;2022-08-26T00:52:59;17.90;99.90
3202;DHT22;34843;48.744;8.958;2022-08-26T00:55:31;17.80;99.90
3202;DHT22;34843;48.744;8.958;2022-08-26T00:57:59;17.80;99.90
3202;DHT22;34843;48.744;8.958;2022-08-26T01:00:27;17.80;99.90
3202;DHT22;34843;48.744;8.958;2022-08-26T01:02:54;17.80;99.90
3202;DHT22;34843;48.744;8.958;2022-08-26T01:05:21;17.80;99.90
3202;DHT22;34843;48.744;8.958;2022-08-26T01:07:47;17.80;99.90
3202;DHT22;34843;48.744;8.958;2022-08-26T01:10:19;17.90;99.90
3202;DHT22;34843;48.744;8.958;2022-08-26T01:12:49;17.80;99.90
3202;DHT22;34843;48.744;8.958;2022-08-26T01:15:22;17.80;99.90
3202;DHT22;34843;48.744;8.958;2022-08-26T01:17:48;17.60;99.90
3202;DHT22;34843;48.744;8.958;2022-08-26T01:20:27;17.60;99.90
3202;DHT22;34843;48.744;8.958;2022-08-26T01:23:04;17.60;99.90
3202;DHT22;34843;48.744;8.958;2022-08-26T01:25:32;17.50;99.90
3202;DHT22;34843;48.744;8.958;2022-08-26T01:28:02;17.50;99.90
3202;DHT22;34843;48.744;8.958;2022-08-26T01:30:30;17.50;99.90
3202;DHT22;34843;48.744;8.958;2022-08-26T01:32:58;17.50;99.90
3202;DHT22;34843;48.744;8.958;2022-08-26T01:35:26;17.50;99.90
3202;DHT22;34843;48.744;8.958;2022-08-26T01:37:53;17.40;99.90
3202;DHT22;34843;48.744;8.958;2022-08-26T01:40:23;17.40;99.90
3202;DHT22;34843;48.744;8.958;2022-08-26T01:42:51;17.40;99.90
3202;DHT22;34843;48.744;8.958;2022-08-26T01:45:21;17.40;99.90
3202;DHT22;34843;48.744;8.958;2022-08-26T01:47:50;17.50;99.90
3202;DHT22;34843;48.744;8.958;2022-08-26T01:50:21;17.40;99.90
3202;DHT22;34843;48.744;8.958;2022-08-26T01:52:50;17.40;99.90
3202;DHT22;34843;48.744;8.958;2022-08-26T01:55:17;17.30;99.90
3202;DHT22;34843;48.744;8.958;2022-08-26T01:57:45;17.30;99.90
3202;DHT22;34843;48.744;8.958;2022-08-26T02:00:12;17.30;99.90
3202;DHT22;34843;48.744;8.958;2022-08-26T02:02:44;17.20;99.90
3202;DHT22;34843;48.744;8.958;2022-08-26T02:05:14;17.20;99.90
3202;DHT22;34843;48.744;8.958;2022-08-26T02:07:41;17.20;99.90
3202;DHT22;34843;48.744;8.958;2022-08-26T02:10:08;17.10;99.90
3202;DHT22;34843;48.744;8.958;2022-08-26T02:12:34;17.00;99.90
3202;DHT22;34843;48.744;8.958;2022-08-26T02:15:04;17.00;99.90
3202;DHT22;34843;48.744;8.958;2022-08-26T02:17:35;17.00;99.90
3202;DHT22;34843;48.744;8.958;2022-08-26T02:20:02;16.90;99.90
3202;DHT22;34843;48.744;8.958;2022-08-26T02:22:29;16.90;99.90
3202;DHT22;34843;48.744;8.958;2022-08-26T02:24:58;16.90;99.90
3202;DHT22;34843;48.744;8.958;2022-08-26T02:27:30;16.90;99.90
3202;DHT22;34843;48.744;8.958;2022-08-26T02:30:04;16.80;99.90
3202;DHT22;34843;48.744;8.958;2022-08-26T02:32:32;16.80;99.90
3202;DHT22;34843;48.744;8.958;2022-08-26T02:34:57;16.80;99.90
3202;DHT22;34843;48.744;8.958;2022-08-26T02:37:27;16.60;99.90
3202;DHT22;34843;48.744;8.958;2022-08-26T02:39:53;16.50;99.90
3202;DHT22;34843;48.744;8.958;2022-08-26T02:42:19;16.40;99.90
3202;DHT22;34843;48.744;8.958;2022-08-26T02:44:44;16.30;99.90
3202;DHT22;34843;48.744;8.958;2022-08-26T02:47:13;16.30;99.90
3202;DHT22;34843;48.744;8.958;2022-08-26T02:49:41;16.20;99.90
3202;DHT22;34843;48.744;8.958;2022-08-26T02:52:07;16.20;99.90
3202;DHT22;34843;48.744;8.958;2022-08-26T02:54:33;16.30;99.90
3202;DHT22;34843;48.744;8.958;2022-08-26T02:56:59;16.30;99.90
3202;DHT22;34843;48.744;8.958;2022-08-26T02:59:24;16.30;99.90
3202;DHT22;34843;48.744;8.958;2022-08-26T03:01:50;16.30;99.90
3202;DHT22;34843;48.744;8.958;2022-08-26T03:04:16;16.30;99.90
3202;DHT22;34843;48.744;8.958;2022-08-26T03:06:41;16.30;99.90
3202;DHT22;34843;48.744;8.958;2022-08-26T03:09:07;16.30;99.90
3202;DHT22;34843;48.744;8.958;2022-08-26T03:11:33;16.30;99.90
3202;DHT22;34843;48.744;8.958;2022-08-26T03:14:00;16.30;99.90
3202;DHT22;34843;48.744;8.958;2022-08-26T03:16:26;16.40;99.90
3202;DHT22;34843;48.744;8.958;2022-08-26T03:18:51;16.40;99.90
3202;DHT22;34843;48.744;8.958;2022-08-26T03:21:18;16.40;99.90
3202;DHT22;34843;48.744;8.958;2022-08-26T03:23:44;16.40;99.90
3202;DHT22;34843;48.744;8.958;2022-08-26T03:26:12;16.40;99.90
3202;DHT22;34843;48.744;8.958;2022-08-26T03:28:38;16.40;99.90
3202;DHT22;34843;48.744;8.958;2022-08-26T03:31:22;16.40;99.90
3202;DHT22;34843;48.744;8.958;2022-08-26T03:33:48;16.40;99.90
3202;DHT22;34843;48.744;8.958;2022-08-26T03:36:14;16.40;99.90
3202;DHT22;34843;48.744;8.958;2022-08-26T03:38:39;16.40;99.90
3202;DHT22;34843;48.744;8.958;2022-08-26T03:41:05;16.40;99.90
3202;DHT22;34843;48.744;8.958;2022-08-26T03:43:32;16.40;99.90
3202;DHT22;34843;48.744;8.958;2022-08-26T03:45:57;16.30;99.90
3202;DHT22;34843;48.744;8.958;2022-08-26T03:48:23;17.60;99.90
3202;DHT22;34843;48.744;8.958;2022-08-26T03:50:48;16.30;99.90
3202;DHT22;34843;48.744;8.958;2022-08-26T03:53:14;16.30;99.90
3202;DHT22;34843;48.744;8.958;2022-08-26T03:55:40;16.30;99.90
3202;DHT22;34843;48.744;8.958;2022-08-26T03:58:06;16.20;99.90
3202;DHT22;34843;48.744;8.958;2022-08-26T04:00:31;16.10;99.90
3202;DHT22;34843;48.744;8.958;2022-08-26T04:02:57;16.20;99.90
3202;DHT22;34843;48.744;8.958;2022-08-26T04:05:23;16.20;99.90
3202;DHT22;34843;48.744;8.958;2022-08-26T04:07:49;16.10;99.90
3202;DHT22;34843;48.744;8.958;2022-08-26T04:10:16;16.10;99.90
3202;DHT22;34843;48.744;8.958;2022-08-26T04:12:43;16.10;99.90
3202;DHT22;34843;48.744;8.958;2022-08-26T04:15:12;16.00;99.90
3202;DHT22;34843;48.744;8.958;2022-08-26T04:17:38;16.10;99.90
3202;DHT22;34843;48.744;8.958;2022-08-26T04:20:05;16.00;99.90
3202;DHT22;34843;48.744;8.958;2022-08-26T04:22:31;16.00;99.90
3202;DHT22;34843;48.744;8.958;2022-08-26T04:24:57;15.90;99.90
3202;DHT22;34843;48.744;8.958;2022-08-26T04:27:23;15.90;99.90
3202;DHT22;34843;48.744;8.958;2022-08-26T04:29:48;15.80;99.90
3202;DHT22;34843;48.744;8.958;2022-08-26T04:32:14;15.80;99.90
3202;DHT22;34843;48.744;8.958;2022-08-26T04:34:40;15.80;99.90
3202;DHT22;34843;48.744;8.958;2022-08-26T04:37:06;15.70;99.90
3202;DHT22;34843;48.744;8.958;2022-08-26T04:39:31;15.60;99.90
3202;DHT22;34843;48.744;8.958;2022-08-26T04:41:57;15.60;99.90
3202;DHT22;34843;48.744;8.958;2022-08-26T04:44:25;15.70;99.90
3202;DHT22;34843;48.744;8.958;2022-08-26T04:46:52;15.80;99.90
3202;DHT22;34843;48.744;8.958;2022-08-26T04:49:18;15.80;99.90
3202;DHT22;34843;48.744;8.958;2022-08-26T04:51:44;15.80;99.90
3202;DHT22;34843;48.744;8.958;2022-08-26T04:54:10;15.90;99.90
3202;DHT22;34843;48.744;8.958;2022-08-26T04:56:38;15.90;99.90
3202;DHT22;34843;48.744;8.958;2022-08-26T04:59:06;16.00;99.90
3202;DHT22;34843;48.744;8.958;2022-08-26T05:01:36;16.90;99.90
3202;DHT22;34843;48.744;8.958;2022-08-26T05:04:02;16.10;99.90
3202;DHT22;34843;48.744;8.958;2022-08-26T05:06:28;16.30;99.90
3202;DHT22;34843;48.744;8.958;2022-08-26T05:08:54;16.60;99.90
3202;DHT22;34843;48.744;8.958;2022-08-26T05:11:20;17.00;99.90
3202;DHT22;34843;48.744;8.958;2022-08-26T05:13:46;17.40;99.90
3202;DHT22;34843;48.744;8.958;2022-08-26T05:16:13;17.90;99.90
3202;DHT22;34843;48.744;8.958;2022-08-26T05:18:41;18.30;99.90
3202;DHT22;34843;48.744;8.958;2022-08-26T05:21:14;18.60;99.90
3202;DHT22;34843;48.744;8.958;2022-08-26T05:23:39;18.90;99.90
3202;DHT22;34843;48.744;8.958;2022-08-26T05:26:07;19.20;99.90
3202;DHT22;34843;48.744;8.958;2022-08-26T05:28:32;19.50;99.90
3202;DHT22;34843;48.744;8.958;2022-08-26T05:30:58;19.70;99.90
3202;DHT22;34843;48.744;8.958;2022-08-26T05:33:23;19.80;99.90
3202;DHT22;34843;48.744;8.958;2022-08-26T05:35:49;19.70;99.90
3202;DHT22;34843;48.744;8.958;2022-08-26T05:38:20;19.40;99.90
3202;DHT22;34843;48.744;8.958;2022-08-26T05:40:49;19.10;99.90
3202;DHT22;34843;48.744;8.958;2022-08-26T05:43:15;18.80;99.90
3202;DHT22;34843;48.744;8.958;2022-08-26T05:45:44;18.70;99.90
3202;DHT22;34843;48.744;8.958;2022-08-26T05:48:10;18.50;99.90
3202;DHT22;34843;48.744;8.958;2022-08-26T05:50:37;18.40;99.90
3202;DHT22;34843;48.744;8.958;2022-08-26T05:53:05;18.30;99.90
3202;DHT22;34843;48.744;8.958;2022-08-26T05:55:30;18.20;99.90
3202;DHT22;34843;48.744;8.958;2022-08-26T05:57:57;18.20;99.90
3202;DHT22;34843;48.744;8.958;2022-08-26T06:00:23;18.30;99.90
3202;DHT22;34843;48.744;8.958;2022-08-26T06:02:48;18.20;99.90
3202;DHT22;34843;48.744;8.958;2022-08-26T06:05:14;18.50;99.90
3202;DHT22;34843;48.744;8.958;2022-08-26T06:07:40;18.80;99.90
3202;DHT22;34843;48.744;8.958;2022-08-26T06:10:24;19.30;99.90
3202;DHT22;34843;48.744;8.958;2022-08-26T06:12:49;19.90;99.90
3202;DHT22;34843;48.744;8.958;2022-08-26T06:15:15;20.30;99.90
3202;DHT22;34843;48.744;8.958;2022-08-26T06:17:41;20.90;99.90
3202;DHT22;34843;48.744;8.958;2022-08-26T06:20:07;21.50;99.90
3202;DHT22;34843;48.744;8.958;2022-08-26T06:22:32;22.00;99.90
3202;DHT22;34843;48.744;8.958;2022-08-26T06:25:16;22.60;99.90
3202;DHT22;34843;48.744;8.958;2022-08-26T06:28:00;23.20;99.90
3202;DHT22;34843;48.744;8.958;2022-08-26T06:30:26;23.60;99.90
3202;DHT22;34843;48.744;8.958;2022-08-26T06:32:52;24.10;99.90
3202;DHT22;34843;48.744;8.958;2022-08-26T06:35:17;24.30;99.90
3202;DHT22;34843;48.744;8.958;2022-08-26T06:37:43;24.40;99.90
3202;DHT22;34843;48.744;8.958;2022-08-26T06:40:09;24.70;99.90
3202;DHT22;34843;48.744;8.958;2022-08-26T06:42:35;24.90;99.90
3202;DHT22;34843;48.744;8.958;2022-08-26T06:45:02;25.20;99.90
3202;DHT22;34843;48.744;8.958;2022-08-26T06:47:28;25.60;99.90
3202;DHT22;34843;48.744;8.958;2022-08-26T06:49:53;26.00;99.90
3202;DHT22;34843;48.744;8.958;2022-08-26T06:52:19;26.30;99.90
3202;DHT22;34843;48.744;8.958;2022-08-26T06:54:45;26.30;99.90
3202;DHT22;34843;48.744;8.958;2022-08-26T06:57:11;26.50;99.90
3202;DHT22;34843;48.744;8.958;2022-08-26T06:59:37;26.80;99.90
3202;DHT22;34843;48.744;8.958;2022-08-26T07:02:02;27.10;99.90
3202;DHT22;34843;48.744;8.958;2022-08-26T07:04:28;27.30;99.90
3202;DHT22;34843;48.744;8.958;2022-08-26T07:06:54;27.40;99.90
3202;DHT22;34843;48.744;8.958;2022-08-26T07:09:22;27.50;99.90
3202;DHT22;34843;48.744;8.958;2022-08-26T07:11:48;27.70;99.90
3202;DHT22;34843;48.744;8.958;2022-08-26T07:14:13;27.80;99.90
3202;DHT22;34843;48.744;8.958;2022-08-26T07:16:40;27.90;99.90
3202;DHT22;34843;48.744;8.958;2022-08-26T07:19:06;27.80;99.90
3202;DHT22;34843;48.744;8.958;2022-08-26T07:21:31;27.70;99.90
3202;DHT22;34843;48.744;8.958;2022-08-26T07:23:57;27.80;99.90
3202;DHT22;34843;48.744;8.958;2022-08-26T07:26:27;28.00;99.90
3202;DHT22;34843;48.744;8.958;2022-08-26T07:28:53;28.30;99.90
3202;DHT22;34843;48.744;8.958;2022-08-26T07:31:22;28.50;99.90
3202;DHT22;34843;48.744;8.958;2022-08-26T07:33:48;28.70;99.90
3202;DHT22;34843;48.744;8.958;2022-08-26T07:36:14;28.90;99.90
3202;DHT22;34843;48.744;8.958;2022-08-26T07:38:41;29.00;99.90
3202;DHT22;34843;48.744;8.958;2022-08-26T07:41:09;29.20;99.90
3202;DHT22;34843;48.744;8.958;2022-08-26T07:43:36;29.10;99.90
3202;DHT22;34843;48.744;8.958;2022-08-26T07:46:02;29.10;99.90
3202;DHT22;34843;48.744;8.958;2022-08-26T07:48:28;29.10;99.90
3202;DHT22;34843;48.744;8.958;2022-08-26T07:50:54;28.90;99.90
3202;DHT22;34843;48.744;8.958;2022-08-26T07:53:20;28.70;99.90
3202;DHT22;34843;48.744;8.958;2022-08-26T07:55:46;28.40;99.90
3202;DHT22;34843;48.744;8.958;2022-08-26T07:58:12;28.20;99.90
3202;DHT22;34843;48.744;8.958;2022-08-26T08:00:38;28.00;99.90
3202;DHT22;34843;48.744;8.958;2022-08-26T08:03:04;27.90;99.90
3202;DHT22;34843;48.744;8.958;2022-08-26T08:05:31;27.90;99.90
3202;DHT22;34843;48.744;8.958;2022-08-26T08:08:03;27.80;99.90
3202;DHT22;34843;48.744;8.958;2022-08-26T08:10:30;27.60;99.90
3202;DHT22;34843;48.744;8.958;2022-08-26T08:12:57;27.40;99.90
3202;DHT22;34843;48.744;8.958;2022-08-26T08:15:25;27.30;99.90
3202;DHT22;34843;48.744;8.958;2022-08-26T08:17:52;27.30;99.90
3202;DHT22;34843;48.744;8.958;2022-08-26T08:20:20;27.30;99.90
3202;DHT22;34843;48.744;8.958;2022-08-26T08:22:46;27.20;99.90
3202;DHT22;34843;48.744;8.958;2022-08-26T08:25:12;27.20;99.90
3202;DHT22;34843;48.744;8.958;2022-08-26T08:27:39;27.10;99.90
3202;DHT22;34843;48.744;8.958;2022-08-26T08:30:06;27.10;99.90
3202;DHT22;34843;48.744;8.958;2022-08-26T08:32:32;27.00;99.90
3202;DHT22;34843;48.744;8.958;2022-08-26T08:35:00;26.90;99.90
3202;DHT22;34843;48.744;8.958;2022-08-26T08:37:26;26.90;99.90
3202;DHT22;34843;48.744;8.958;2022-08-26T08:39:51;26.90;99.90
3202;DHT22;34843;48.744;8.958;2022-08-26T08:45:27;27.00;99.90
3202;DHT22;34843;48.744;8.958;2022-08-26T08:47:58;27.10;99.90
3202;DHT22;34843;48.744;8.958;2022-08-26T08:50:30;27.20;99.90
3202;DHT22;34843;48.744;8.958;2022-08-26T08:53:19;27.40;99.90
3202;DHT22;34843;48.744;8.958;2022-08-26T08:58:50;27.70;99.90
3202;DHT22;34843;48.744;8.958;2022-08-26T09:07:22;27.90;99.90
3202;DHT22;34843;48.744;8.958;2022-08-26T09:09:56;27.80;99.90
3202;DHT22;34843;48.744;8.958;2022-08-26T09:12:28;27.70;99.90
3202;DHT22;34843;48.744;8.958;2022-08-26T09:15:19;27.80;99.90
3202;DHT22;34843;48.744;8.958;2022-08-26T09:17:50;27.80;99.90
3202;DHT22;34843;48.744;8.958;2022-08-26T09:20:42;27.80;99.90
3202;DHT22;34843;48.744;8.958;2022-08-26T09:23:11;27.90;99.90
3202;DHT22;34843;48.744;8.958;2022-08-26T09:25:47;27.90;99.90
3202;DHT22;34843;48.744;8.958;2022-08-26T09:28:17;27.90;99.90
3202;DHT22;34843;48.744;8.958;2022-08-26T09:30:45;27.90;99.90
3202;DHT22;34843;48.744;8.958;2022-08-26T09:33:15;27.90;99.90
3202;DHT22;34843;48.744;8.958;2022-08-26T09:35:43;27.90;99.90
3202;DHT22;34843;48.744;8.958;2022-08-26T09:38:26;27.90;99.90
3202;DHT22;34843;48.744;8.958;2022-08-26T09:41:04;27.60;99.90
3202;DHT22;34843;48.744;8.958;2022-08-26T09:43:30;27.40;99.90
3202;DHT22;34843;48.744;8.958;2022-08-26T09:46:21;27.30;99.90
3202;DHT22;34843;48.744;8.958;2022-08-26T09:48:49;27.30;99.90
3202;DHT22;34843;48.744;8.958;2022-08-26T09:51:29;27.10;99.90
3202;DHT22;34843;48.744;8.958;2022-08-26T09:54:01;27.10;99.90
3202;DHT22;34843;48.744;8.958;2022-08-26T09:56:33;27.10;99.90
3202;DHT22;34843;48.744;8.958;2022-08-26T09:59:00;27.20;99.90
3202;DHT22;34843;48.744;8.958;2022-08-26T10:01:35;27.40;99.90
3202;DHT22;34843;48.744;8.958;2022-08-26T10:04:21;27.50;99.90
3202;DHT22;34843;48.744;8.958;2022-08-26T10:06:58;27.50;99.90
3202;DHT22;34843;48.744;8.958;2022-08-26T10:09:24;27.60;99.90
3202;DHT22;34843;48.744;8.958;2022-08-26T10:11:51;27.70;99.90
3202;DHT22;34843;48.744;8.958;2022-08-26T10:14:29;27.90;99.90
3202;DHT22;34843;48.744;8.958;2022-08-26T10:17:03;28.10;99.90
3202;DHT22;34843;48.744;8.958;2022-08-26T10:19:53;28.20;99.90
3202;DHT22;34843;48.744;8.958;2022-08-26T10:22:27;28.30;99.90
3202;DHT22;34843;48.744;8.958;2022-08-26T10:25:00;28.40;99.90
3202;DHT22;34843;48.744;8.958;2022-08-26T10:30:06;28.50;99.90
3202;DHT22;34843;48.744;8.958;2022-08-26T10:32:56;28.50;99.90
3202;DHT22;34843;48.744;8.958;2022-08-26T10:35:25;28.30;99.90
3202;DHT22;34843;48.744;8.958;2022-08-26T10:37:55;28.20;99.90
3202;DHT22;34843;48.744;8.958;2022-08-26T10:40:40;28.00;99.90
3202;DHT22;34843;48.744;8.958;2022-08-26T10:43:14;28.00;99.90
3202;DHT22;34843;48.744;8.958;2022-08-26T10:45:49;28.00;99.90
3202;DHT22;34843;48.744;8.958;2022-08-26T10:48:20;28.10;99.90
3202;DHT22;34843;48.744;8.958;2022-08-26T10:50:47;28.10;99.90
3202;DHT22;34843;48.744;8.958;2022-08-26T10:53:23;28.20;99.90
3202;DHT22;34843;48.744;8.958;2022-08-26T10:55:58;28.40;99.90
3202;DHT22;34843;48.744;8.958;2022-08-26T11:10:05;28.90;99.90
3202;DHT22;34843;48.744;8.958;2022-08-26T11:15:09;29.00;99.90
3202;DHT22;34843;48.744;8.958;2022-08-26T11:20:36;29.20;99.90
3202;DHT22;34843;48.744;8.958;2022-08-26T11:28:39;29.40;99.90
3202;DHT22;34843;48.744;8.958;2022-08-26T11:31:11;29.40;99.90
3202;DHT22;34843;48.744;8.958;2022-08-26T11:33:47;29.50;99.90
3202;DHT22;34843;48.744;8.958;2022-08-26T11:41:59;29.90;99.90
3202;DHT22;34843;48.744;8.958;2022-08-26T11:44:39;29.90;99.90
3202;DHT22;34843;48.744;8.958;2022-08-26T11:47:05;30.10;99.90
3202;DHT22;34843;48.744;8.958;2022-08-26T11:49:34;30.10;99.90
3202;DHT22;34843;48.744;8.958;2022-08-26T11:54:39;30.00;99.90
3202;DHT22;34843;48.744;8.958;2022-08-26T11:57:23;30.10;99.90
3202;DHT22;34843;48.744;8.958;2022-08-26T11:59:48;30.10;99.90
3202;DHT22;34843;48.744;8.958;2022-08-26T12:02:15;30.10;99.90
3202;DHT22;34843;48.744;8.958;2022-08-26T12:04:45;30.10;99.90
3202;DHT22;34843;48.744;8.958;2022-08-26T12:07:13;30.00;99.90
3202;DHT22;34843;48.744;8.958;2022-08-26T12:09:51;30.00;99.90
3202;DHT22;34843;48.744;8.958;2022-08-26T12:12:22;29.90;99.90
3202;DHT22;34843;48.744;8.958;2022-08-26T12:14:50;29.70;99.90
3202;DHT22;34843;48.744;8.958;2022-08-26T12:17:27;29.80;99.90
3202;DHT22;34843;48.744;8.958;2022-08-26T12:19:53;29.80;99.90
3202;DHT22;34843;48.744;8.958;2022-08-26T12:22:25;29.80;99.90
3202;DHT22;34843;48.744;8.958;2022-08-26T12:24:57;29.70;99.90
3202;DHT22;34843;48.744;8.958;2022-08-26T12:27:28;29.50;99.90
3202;DHT22;34843;48.744;8.958;2022-08-26T12:33:05;29.60;99.90
3202;DHT22;34843;48.744;8.958;2022-08-26T12:35:32;29.60;99.90
3202;DHT22;34843;48.744;8.958;2022-08-26T12:38:00;29.60;99.90
3202;DHT22;34843;48.744;8.958;2022-08-26T12:42:59;29.60;99.90
3202;DHT22;34843;48.744;8.958;2022-08-26T12:48:02;29.80;99.90
3202;DHT22;34843;48.744;8.958;2022-08-26T12:50:32;29.70;99.90
3202;DHT22;34843;48.744;8.958;2022-08-26T12:55:44;29.80;99.90
3202;DHT22;34843;48.744;8.958;2022-08-26T13:06:23;29.70;99.90
3202;DHT22;34843;48.744;8.958;2022-08-26T13:11:19;29.70;99.90
3202;DHT22;34843;48.744;8.958;2022-08-26T13:13:50;29.70;99.90
3202;DHT22;34843;48.744;8.958;2022-08-26T13:16:17;29.80;99.90
3202;DHT22;34843;48.744;8.958;2022-08-26T13:18:47;29.90;99.90
3202;DHT22;34843;48.744;8.958;2022-08-26T13:21:22;30.00;99.90
3202;DHT22;34843;48.744;8.958;2022-08-26T13:23:49;30.00;99.90
3202;DHT22;34843;48.744;8.958;2022-08-26T13:26:16;29.90;99.90
3202;DHT22;34843;48.744;8.958;2022-08-26T13:28:41;29.90;99.90
3202;DHT22;34843;48.744;8.958;2022-08-26T13:31:09;29.90;99.90
3202;DHT22;34843;48.744;8.958;2022-08-26T13:33:36;29.90;99.90
3202;DHT22;34843;48.744;8.958;2022-08-26T13:36:02;29.70;99.90
3202;DHT22;34843;48.744;8.958;2022-08-26T13:38:28;29.60;99.90
3202;DHT22;34843;48.744;8.958;2022-08-26T13:40:54;29.60;99.90
3202;DHT22;34843;48.744;8.958;2022-08-26T13:43:20;29.60;99.90
3202;DHT22;34843;48.744;8.958;2022-08-26T13:45:45;29.60;99.90
3202;DHT22;34843;48.744;8.958;2022-08-26T13:48:13;29.50;99.90
3202;DHT22;34843;48.744;8.958;2022-08-26T13:50:39;29.40;99.90
3202;DHT22;34843;48.744;8.958;2022-08-26T13:53:05;29.40;99.90
3202;DHT22;34843;48.744;8.958;2022-08-26T13:55:30;29.40;99.90
3202;DHT22;34843;48.744;8.958;2022-08-26T13:57:56;29.20;99.90
3202;DHT22;34843;48.744;8.958;2022-08-26T14:00:22;29.30;99.90
3202;DHT22;34843;48.744;8.958;2022-08-26T14:02:47;29.20;99.90
3202;DHT22;34843;48.744;8.958;2022-08-26T14:05:13;29.10;99.90
3202;DHT22;34843;48.744;8.958;2022-08-26T14:07:39;28.90;99.90
3202;DHT22;34843;48.744;8.958;2022-08-26T14:10:05;28.90;99.90
3202;DHT22;34843;48.744;8.958;2022-08-26T14:12:31;28.80;99.90
3202;DHT22;34843;48.744;8.958;2022-08-26T14:14:56;28.80;99.90
3202;DHT22;34843;48.744;8.958;2022-08-26T14:17:22;28.80;99.90
3202;DHT22;34843;48.744;8.958;2022-08-26T14:19:49;28.70;99.90
3202;DHT22;34843;48.744;8.958;2022-08-26T14:22:17;28.80;99.90
3202;DHT22;34843;48.744;8.958;2022-08-26T14:24:44;28.90;99.90
3202;DHT22;34843;48.744;8.958;2022-08-26T14:27:11;29.00;99.90
3202;DHT22;34843;48.744;8.958;2022-08-26T14:29:37;29.10;99.90
3202;DHT22;34843;48.744;8.958;2022-08-26T14:32:07;29.00;99.90
3202;DHT22;34843;48.744;8.958;2022-08-26T14:34:37;28.90;99.90
3202;DHT22;34843;48.744;8.958;2022-08-26T14:37:03;28.80;99.90
3202;DHT22;34843;48.744;8.958;2022-08-26T14:39:29;28.70;99.90
3202;DHT22;34843;48.744;8.958;2022-08-26T14:41:55;28.70;99.90
3202;DHT22;34843;48.744;8.958;2022-08-26T14:44:23;28.80;99.90
3202;DHT22;34843;48.744;8.958;2022-08-26T14:46:50;28.80;99.90
3202;DHT22;34843;48.744;8.958;2022-08-26T14:49:18;28.90;99.90
3202;DHT22;34843;48.744;8.958;2022-08-26T14:51:44;29.00;99.90
3202;DHT22;34843;48.744;8.958;2022-08-26T14:54:11;29.10;99.90
3202;DHT22;34843;48.744;8.958;2022-08-26T14:56:40;29.30;99.90
3202;DHT22;34843;48.744;8.958;2022-08-26T14:59:06;29.30;99.90
3202;DHT22;34843;48.744;8.958;2022-08-26T15:01:32;29.40;99.90
3202;DHT22;34843;48.744;8.958;2022-08-26T15:04:01;29.50;99.90
3202;DHT22;34843;48.744;8.958;2022-08-26T15:06:28;29.60;99.90
3202;DHT22;34843;48.744;8.958;2022-08-26T15:08:54;29.50;99.90
3202;DHT22;34843;48.744;8.958;2022-08-26T15:11:20;29.40;99.90
3202;DHT22;34843;48.744;8.958;2022-08-26T15:13:46;29.20;99.90
3202;DHT22;34843;48.744;8.958;2022-08-26T15:16:12;29.30;99.90
3202;DHT22;34843;48.744;8.958;2022-08-26T15:18:38;29.20;99.90
3202;DHT22;34843;48.744;8.958;2022-08-26T15:21:04;29.10;99.90
3202;DHT22;34843;48.744;8.958;2022-08-26T15:23:30;29.00;99.90
3202;DHT22;34843;48.744;8.958;2022-08-26T15:25:56;28.90;99.90
3202;DHT22;34843;48.744;8.958;2022-08-26T15:28:22;28.80;99.90
3202;DHT22;34843;48.744;8.958;2022-08-26T15:30:47;28.50;99.90
3202;DHT22;34843;48.744;8.958;2022-08-26T15:33:14;27.90;99.90
3202;DHT22;34843;48.744;8.958;2022-08-26T15:35:39;27.40;99.90
3202;DHT22;34843;48.744;8.958;2022-08-26T15:38:05;27.10;99.90
3202;DHT22;34843;48.744;8.958;2022-08-26T15:40:31;26.80;99.90
3202;DHT22;34843;48.744;8.958;2022-08-26T15:42:56;26.50;99.90
3202;DHT22;34843;48.744;8.958;2022-08-26T15:45:22;26.30;99.90
3202;DHT22;34843;48.744;8.958;2022-08-26T15:47:47;26.00;99.90
3202;DHT22;34843;48.744;8.958;2022-08-26T15:50:13;25.60;99.90
3202;DHT22;34843;48.744;8.958;2022-08-26T15:52:38;25.30;99.90
3202;DHT22;34843;48.744;8.958;2022-08-26T15:55:05;25.10;99.90
3202;DHT22;34843;48.744;8.958;2022-08-26T15:57:30;25.00;99.90
3202;DHT22;34843;48.744;8.958;2022-08-26T15:59:56;24.70;99.90
3202;DHT22;34843;48.744;8.958;2022-08-26T16:02:21;24.60;99.90
3202;DHT22;34843;48.744;8.958;2022-08-26T16:04:47;24.50;99.90
3202;DHT22;34843;48.744;8.958;2022-08-26T16:07:13;24.40;99.90
3202;DHT22;34843;48.744;8.958;2022-08-26T16:09:38;24.20;99.90
3202;DHT22;34843;48.744;8.958;2022-08-26T16:12:04;24.20;99.90
3202;DHT22;34843;48.744;8.958;2022-08-26T16:14:30;24.00;99.90
3202;DHT22;34843;48.744;8.958;2022-08-26T16:16:55;23.80;99.90
3202;DHT22;34843;48.744;8.958;2022-08-26T16:19:21;23.70;99.90
3202;DHT22;34843;48.744;8.958;2022-08-26T16:21:47;23.70;99.90
3202;DHT22;34843;48.744;8.958;2022-08-26T16:24:15;23.70;99.90
3202;DHT22;34843;48.744;8.958;2022-08-26T16:26:41;23.50;99.90
3202;DHT22;34843;48.744;8.958;2022-08-26T16:29:10;23.50;99.90
3202;DHT22;34843;48.744;8.958;2022-08-26T16:31:37;23.50;99.90
3202;DHT22;34843;48.744;8.958;2022-08-26T16:34:04;23.40;99.90
3202;DHT22;34843;48.744;8.958;2022-08-26T16:36:31;23.40;99.90
3202;DHT22;34843;48.744;8.958;2022-08-26T16:38:57;23.20;99.90
3202;DHT22;34843;48.744;8.958;2022-08-26T16:41:24;23.00;99.90
3202;DHT22;34843;48.744;8.958;2022-08-26T16:43:50;22.20;99.90
3202;DHT22;34843;48.744;8.958;2022-08-26T16:46:16;21.50;99.90
3202;DHT22;34843;48.744;8.958;2022-08-26T16:48:43;21.10;99.90
3202;DHT22;34843;48.744;8.958;2022-08-26T16:51:16;20.70;99.90
3202;DHT22;34843;48.744;8.958;2022-08-26T16:53:43;20.40;99.90
3202;DHT22;34843;48.744;8.958;2022-08-26T16:56:14;20.30;99.90
3202;DHT22;34843;48.744;8.958;2022-08-26T16:58:40;20.10;99.90